HOURLY OBS INDEX

060

Manning

PORT MACQUARIE AIRPORT AWS

Site: 060139
Alt: 4.2m
5km E of PORT MACQUARIE


  Time     Wind        Temp  DP   Baro     Rain since   Rain past  Vis(m), Cloud(base in m), Weather
  local        km/h                         9am  last   hr   10m    
Wed 15:00   NE 17/ 22  23.5 15.5  1007.9    0.0   0.0   0.0   0.0   10000 
Wed 15:30  ENE 11/ 17  23.6 15.6  1008.1    0.0   0.0   0.0   0.0   10000 
Wed 16:00  ENE  7/ 11  22.8 15.9  1008.4    0.0   0.0   0.0   0.0   10000 
Wed 16:30    N 17/ 20  23.1 14.7  1008.3    0.0   0.0   0.0   0.0   10000 
Wed 17:00    N 15/ 20  22.5 14.9  1008.9    0.0   0.0   0.0   0.0   10000|BR3750 
Wed 17:30  NNE 11/ 15  22.0 15.1  1009.2    0.0   0.0   0.0   0.0   10000 
Wed 18:00    N  9/ 11  21.1 15.0  1010.0    0.0   0.0   0.0   0.0   10000|BR3450 
Wed 18:30  NNE 13/ 17  20.8 14.9  1009.8    0.0   0.0   0.0   0.0   10000|SC3000 OC3750 
Wed 19:00    N 11/ 15  20.5 14.6  1010.2    0.0   0.0   0.0   0.0   10000|OC3750 
Wed 19:30  NNW  6/  9  18.8 13.9  1010.5    0.0   0.0   0.0   0.0   10000 
Wed 20:00    C  0/  6  16.2 13.3  1010.8    0.0   0.0   0.0   0.0   10000 
Wed 20:30    C  0/  0  15.6 13.8  1010.7    0.0   0.0   0.0   0.0   10000 

TAREE AIRPORT AWS

Site: 060141
Alt: 8.0m
6km ENE of TAREE


  Time     Wind        Temp  DP   Baro     Rain since   Rain past  Vis(m), Cloud(base in m), Weather
  local        km/h                         9am  last   hr   10m    
Wed 15:00  ENE 15/ 22  24.8 13.4  1007.7    0.0   0.0   0.0   0.0   10000 
Wed 15:30  ENE 13/ 19  24.4 14.2  1007.6    0.0   0.0   0.0   0.0   10000 
Wed 16:00   NE 11/ 13  24.0 14.7  1007.7    0.0   0.0   0.0   0.0   10000|SC3600 
Wed 16:30  ESE 11/ 13  24.3 15.2  1007.7    0.0   0.0   0.0   0.0   10000 
Wed 17:00   SE 11/ 15  23.4 14.7  1007.9    0.0   0.0   0.0   0.0   10000 
Wed 17:30    N  6/  7  22.5 13.8  1008.5    0.0   0.0   0.0   0.0   10000|BR3750 
Wed 18:00  ESE  2/  7  21.1 14.5  1008.8    0.0   0.0   0.0   0.0   10000|BR3750 
Wed 18:30    W 15/ 24  23.8  9.8  1009.9    0.0   0.0   0.0   0.0   10000|BR3000 OC3450 
Wed 18:55   SW 43/ 56  22.6  6.8  1010.4    0.0   0.0  ----   0.0   10000|BR3450 
Wed 19:00  WSW 41/ 59  22.0  7.0  1010.7    0.0   0.0   0.0   0.0   10000|BR3450 
Wed 19:30  WSW 15/ 26  20.6  7.9  1010.8    0.0   0.0   0.0   0.0   10000 
Wed 20:00  WNW 11/ 13  19.6  8.0  1010.7    0.0   0.0   0.0   0.0   10000 
Wed 20:30  NNE  7/ 11  15.8  8.1  1010.2    0.0   0.0   0.0   0.0   10000